sensor_id;sensor_type;location;lat;lon;timestamp;temperature;humidity
11656;DHT22;5884;43.618;1.438;2023-08-12T04:45:33;21.30;99.90
11656;DHT22;5884;43.618;1.438;2023-08-12T04:48:01;21.30;99.90
11656;DHT22;5884;43.618;1.438;2023-08-12T04:50:29;21.20;99.90
11656;DHT22;5884;43.618;1.438;2023-08-12T04:52:57;21.20;99.90
11656;DHT22;5884;43.618;1.438;2023-08-12T04:55:24;21.20;99.90
11656;DHT22;5884;43.618;1.438;2023-08-12T04:57:52;21.20;99.90
11656;DHT22;5884;43.618;1.438;2023-08-12T05:00:20;21.30;99.90
11656;DHT22;5884;43.618;1.438;2023-08-12T05:02:49;21.30;99.90
11656;DHT22;5884;43.618;1.438;2023-08-12T05:05:16;21.30;99.90
11656;DHT22;5884;43.618;1.438;2023-08-12T05:07:43;21.30;99.90
11656;DHT22;5884;43.618;1.438;2023-08-12T05:10:14;21.20;99.90
11656;DHT22;5884;43.618;1.438;2023-08-12T05:12:42;21.20;99.90
11656;DHT22;5884;43.618;1.438;2023-08-12T05:15:10;21.20;99.90
11656;DHT22;5884;43.618;1.438;2023-08-12T05:17:37;21.20;99.90
11656;DHT22;5884;43.618;1.438;2023-08-12T05:20:07;21.20;99.90
11656;DHT22;5884;43.618;1.438;2023-08-12T05:22:35;21.20;99.90
11656;DHT22;5884;43.618;1.438;2023-08-12T05:25:02;21.20;99.90
11656;DHT22;5884;43.618;1.438;2023-08-12T05:27:30;21.30;99.90
11656;DHT22;5884;43.618;1.438;2023-08-12T05:29:57;21.20;99.90
11656;DHT22;5884;43.618;1.438;2023-08-12T05:32:24;21.30;99.90
11656;DHT22;5884;43.618;1.438;2023-08-12T05:34:52;21.30;99.90
11656;DHT22;5884;43.618;1.438;2023-08-12T05:37:21;21.40;99.90
11656;DHT22;5884;43.618;1.438;2023-08-12T05:39:48;21.40;99.90
11656;DHT22;5884;43.618;1.438;2023-08-12T05:42:15;21.40;99.90
11656;DHT22;5884;43.618;1.438;2023-08-12T05:44:42;21.50;99.90
11656;DHT22;5884;43.618;1.438;2023-08-12T05:47:10;21.50;99.90
11656;DHT22;5884;43.618;1.438;2023-08-12T05:49:37;21.60;99.90
11656;DHT22;5884;43.618;1.438;2023-08-12T05:52:05;21.70;99.90
11656;DHT22;5884;43.618;1.438;2023-08-12T05:54:34;21.70;99.90
11656;DHT22;5884;43.618;1.438;2023-08-12T05:57:01;21.80;99.90
11656;DHT22;5884;43.618;1.438;2023-08-12T05:59:28;21.90;99.90
11656;DHT22;5884;43.618;1.438;2023-08-12T06:01:55;22.00;99.90
11656;DHT22;5884;43.618;1.438;2023-08-12T06:04:22;21.90;99.90
11656;DHT22;5884;43.618;1.438;2023-08-12T06:06:50;22.00;99.90
11656;DHT22;5884;43.618;1.438;2023-08-12T06:09:17;22.10;99.90
11656;DHT22;5884;43.618;1.438;2023-08-12T06:11:46;22.10;99.90
11656;DHT22;5884;43.618;1.438;2023-08-12T06:14:13;22.10;99.90
11656;DHT22;5884;43.618;1.438;2023-08-12T06:16:40;22.10;99.90
11656;DHT22;5884;43.618;1.438;2023-08-12T06:19:07;22.20;99.90
11656;DHT22;5884;43.618;1.438;2023-08-12T06:21:35;22.10;99.90
11656;DHT22;5884;43.618;1.438;2023-08-12T06:24:02;22.10;99.90
11656;DHT22;5884;43.618;1.438;2023-08-12T06:26:30;22.10;99.90
11656;DHT22;5884;43.618;1.438;2023-08-12T06:28:58;22.10;99.90
11656;DHT22;5884;43.618;1.438;2023-08-12T06:31:26;22.00;99.90
11656;DHT22;5884;43.618;1.438;2023-08-12T06:33:53;22.10;99.90
11656;DHT22;5884;43.618;1.438;2023-08-12T06:36:20;21.90;99.90
11656;DHT22;5884;43.618;1.438;2023-08-12T06:38:47;22.00;99.90
11656;DHT22;5884;43.618;1.438;2023-08-12T06:41:15;22.00;99.90
11656;DHT22;5884;43.618;1.438;2023-08-12T06:43:42;22.00;99.90
11656;DHT22;5884;43.618;1.438;2023-08-12T06:46:10;22.00;99.90
11656;DHT22;5884;43.618;1.438;2023-08-12T06:48:38;22.00;99.90
11656;DHT22;5884;43.618;1.438;2023-08-12T06:51:05;22.10;99.90
11656;DHT22;5884;43.618;1.438;2023-08-12T06:53:36;22.20;99.90
11656;DHT22;5884;43.618;1.438;2023-08-12T06:56:03;22.40;99.90
11656;DHT22;5884;43.618;1.438;2023-08-12T06:58:31;22.50;99.90
11656;DHT22;5884;43.618;1.438;2023-08-12T07:00:58;22.50;99.90
11656;DHT22;5884;43.618;1.438;2023-08-12T07:03:27;22.60;99.90
11656;DHT22;5884;43.618;1.438;2023-08-12T07:05:54;22.80;99.90
11656;DHT22;5884;43.618;1.438;2023-08-12T07:08:22;23.10;99.90
11656;DHT22;5884;43.618;1.438;2023-08-12T07:10:49;23.20;99.90
11656;DHT22;5884;43.618;1.438;2023-08-12T07:13:16;23.20;99.90
11656;DHT22;5884;43.618;1.438;2023-08-12T07:15:43;23.10;99.90
11656;DHT22;5884;43.618;1.438;2023-08-12T07:18:11;23.10;99.90
11656;DHT22;5884;43.618;1.438;2023-08-12T07:20:39;23.00;99.90
11656;DHT22;5884;43.618;1.438;2023-08-12T07:23:06;23.00;99.90
11656;DHT22;5884;43.618;1.438;2023-08-12T07:25:34;23.00;99.90
11656;DHT22;5884;43.618;1.438;2023-08-12T07:28:01;23.10;99.90
11656;DHT22;5884;43.618;1.438;2023-08-12T07:30:28;23.10;99.90
11656;DHT22;5884;43.618;1.438;2023-08-12T07:32:55;23.20;99.90
11656;DHT22;5884;43.618;1.438;2023-08-12T07:35:23;23.20;99.90
11656;DHT22;5884;43.618;1.438;2023-08-12T07:37:51;23.40;99.90
11656;DHT22;5884;43.618;1.438;2023-08-12T07:40:18;23.50;99.90
11656;DHT22;5884;43.618;1.438;2023-08-12T07:42:46;23.60;99.90
11656;DHT22;5884;43.618;1.438;2023-08-12T07:45:13;23.60;99.90
11656;DHT22;5884;43.618;1.438;2023-08-12T07:47:41;23.80;99.90
11656;DHT22;5884;43.618;1.438;2023-08-12T07:50:08;23.90;99.90
11656;DHT22;5884;43.618;1.438;2023-08-12T07:52:36;23.90;99.90
11656;DHT22;5884;43.618;1.438;2023-08-12T07:55:05;23.90;99.90
11656;DHT22;5884;43.618;1.438;2023-08-12T07:57:33;24.10;99.90
11656;DHT22;5884;43.618;1.438;2023-08-12T08:00:00;24.20;99.90
11656;DHT22;5884;43.618;1.438;2023-08-12T08:02:27;24.30;99.90
11656;DHT22;5884;43.618;1.438;2023-08-12T08:04:54;24.50;99.90
11656;DHT22;5884;43.618;1.438;2023-08-12T08:07:21;24.60;99.90
11656;DHT22;5884;43.618;1.438;2023-08-12T08:09:50;24.70;99.90
11656;DHT22;5884;43.618;1.438;2023-08-12T08:12:19;24.90;99.90
11656;DHT22;5884;43.618;1.438;2023-08-12T08:14:46;25.00;99.90
11656;DHT22;5884;43.618;1.438;2023-08-12T08:17:13;24.90;99.90
11656;DHT22;5884;43.618;1.438;2023-08-12T08:19:40;24.70;99.90
11656;DHT22;5884;43.618;1.438;2023-08-12T08:22:07;24.50;99.90
11656;DHT22;5884;43.618;1.438;2023-08-12T08:24:35;24.40;99.90
11656;DHT22;5884;43.618;1.438;2023-08-12T08:27:02;24.40;99.90
11656;DHT22;5884;43.618;1.438;2023-08-12T08:29:31;24.40;99.90
11656;DHT22;5884;43.618;1.438;2023-08-12T08:31:58;24.40;99.90
11656;DHT22;5884;43.618;1.438;2023-08-12T08:34:25;24.50;99.90
11656;DHT22;5884;43.618;1.438;2023-08-12T08:36:53;24.50;99.90
11656;DHT22;5884;43.618;1.438;2023-08-12T08:39:20;24.60;99.90
11656;DHT22;5884;43.618;1.438;2023-08-12T08:41:48;24.60;99.90
11656;DHT22;5884;43.618;1.438;2023-08-12T08:44:16;24.70;99.90
11656;DHT22;5884;43.618;1.438;2023-08-12T08:46:46;24.80;99.90
11656;DHT22;5884;43.618;1.438;2023-08-12T08:49:14;24.90;99.90
11656;DHT22;5884;43.618;1.438;2023-08-12T08:51:43;25.00;99.90
11656;DHT22;5884;43.618;1.438;2023-08-12T08:54:11;25.20;99.90
11656;DHT22;5884;43.618;1.438;2023-08-12T08:56:39;25.10;99.90
11656;DHT22;5884;43.618;1.438;2023-08-12T08:59:07;25.10;99.90
11656;DHT22;5884;43.618;1.438;2023-08-12T09:01:35;25.20;99.90
11656;DHT22;5884;43.618;1.438;2023-08-12T09:04:05;25.30;99.90
11656;DHT22;5884;43.618;1.438;2023-08-12T09:06:36;25.30;99.90
11656;DHT22;5884;43.618;1.438;2023-08-12T09:09:07;25.40;99.90
11656;DHT22;5884;43.618;1.438;2023-08-12T09:11:38;25.50;99.90
11656;DHT22;5884;43.618;1.438;2023-08-12T09:14:06;25.70;99.90
11656;DHT22;5884;43.618;1.438;2023-08-12T09:16:34;25.80;99.90
11656;DHT22;5884;43.618;1.438;2023-08-12T09:19:01;25.80;99.90
11656;DHT22;5884;43.618;1.438;2023-08-12T09:21:30;25.80;99.90
11656;DHT22;5884;43.618;1.438;2023-08-12T09:24:02;25.90;99.90
11656;DHT22;5884;43.618;1.438;2023-08-12T09:26:30;25.90;99.90
11656;DHT22;5884;43.618;1.438;2023-08-12T09:28:59;26.00;99.90
11656;DHT22;5884;43.618;1.438;2023-08-12T09:31:27;26.00;99.90
11656;DHT22;5884;43.618;1.438;2023-08-12T09:33:58;25.90;99.90
11656;DHT22;5884;43.618;1.438;2023-08-12T09:36:29;26.00;99.90
11656;DHT22;5884;43.618;1.438;2023-08-12T09:38:57;26.20;99.90
11656;DHT22;5884;43.618;1.438;2023-08-12T09:41:25;26.30;99.90
11656;DHT22;5884;43.618;1.438;2023-08-12T09:43:54;26.40;99.90
11656;DHT22;5884;43.618;1.438;2023-08-12T09:46:22;26.60;99.90
11656;DHT22;5884;43.618;1.438;2023-08-12T09:48:50;26.70;99.90
11656;DHT22;5884;43.618;1.438;2023-08-12T09:51:18;26.80;99.90
11656;DHT22;5884;43.618;1.438;2023-08-12T09:53:49;26.90;99.90
11656;DHT22;5884;43.618;1.438;2023-08-12T09:56:18;27.00;99.90
11656;DHT22;5884;43.618;1.438;2023-08-12T09:58:48;27.10;99.90
11656;DHT22;5884;43.618;1.438;2023-08-12T10:01:18;27.10;99.90
11656;DHT22;5884;43.618;1.438;2023-08-12T10:03:48;27.10;99.90
11656;DHT22;5884;43.618;1.438;2023-08-12T10:06:17;27.20;99.90
11656;DHT22;5884;43.618;1.438;2023-08-12T10:08:46;27.40;99.90
11656;DHT22;5884;43.618;1.438;2023-08-12T10:11:15;27.50;99.90
11656;DHT22;5884;43.618;1.438;2023-08-12T10:13:43;27.60;99.90
11656;DHT22;5884;43.618;1.438;2023-08-12T10:16:10;27.70;99.90
11656;DHT22;5884;43.618;1.438;2023-08-12T10:18:39;27.70;99.90
11656;DHT22;5884;43.618;1.438;2023-08-12T10:21:09;27.80;99.90
11656;DHT22;5884;43.618;1.438;2023-08-12T10:23:37;27.80;99.90
11656;DHT22;5884;43.618;1.438;2023-08-12T10:26:06;27.90;99.90
11656;DHT22;5884;43.618;1.438;2023-08-12T10:28:34;28.00;99.90
11656;DHT22;5884;43.618;1.438;2023-08-12T10:31:04;28.30;99.90
11656;DHT22;5884;43.618;1.438;2023-08-12T10:33:35;28.30;99.90
11656;DHT22;5884;43.618;1.438;2023-08-12T10:36:04;28.30;99.90
11656;DHT22;5884;43.618;1.438;2023-08-12T10:38:32;28.30;99.90
11656;DHT22;5884;43.618;1.438;2023-08-12T10:41:20;28.20;99.90
11656;DHT22;5884;43.618;1.438;2023-08-12T10:43:52;28.40;99.90
11656;DHT22;5884;43.618;1.438;2023-08-12T10:46:28;28.50;99.90
11656;DHT22;5884;43.618;1.438;2023-08-12T10:48:57;28.60;99.90
11656;DHT22;5884;43.618;1.438;2023-08-12T10:51:49;28.50;99.90
11656;DHT22;5884;43.618;1.438;2023-08-12T10:54:18;28.80;99.90
11656;DHT22;5884;43.618;1.438;2023-08-12T10:57:11;28.70;99.90
11656;DHT22;5884;43.618;1.438;2023-08-12T10:59:49;28.80;99.90
11656;DHT22;5884;43.618;1.438;2023-08-12T11:02:17;28.90;99.90
11656;DHT22;5884;43.618;1.438;2023-08-12T11:04:49;29.00;99.90
11656;DHT22;5884;43.618;1.438;2023-08-12T11:07:18;29.00;99.90
11656;DHT22;5884;43.618;1.438;2023-08-12T11:09:48;29.10;99.90
11656;DHT22;5884;43.618;1.438;2023-08-12T11:12:28;29.20;99.90
11656;DHT22;5884;43.618;1.438;2023-08-12T11:14:58;29.40;99.90
11656;DHT22;5884;43.618;1.438;2023-08-12T11:17:33;29.60;99.90
11656;DHT22;5884;43.618;1.438;2023-08-12T11:20:03;29.40;99.90
11656;DHT22;5884;43.618;1.438;2023-08-12T11:22:35;29.50;99.90
11656;DHT22;5884;43.618;1.438;2023-08-12T11:25:04;29.60;99.90
11656;DHT22;5884;43.618;1.438;2023-08-12T11:27:43;29.50;99.90
11656;DHT22;5884;43.618;1.438;2023-08-12T11:30:13;29.60;99.90
11656;DHT22;5884;43.618;1.438;2023-08-12T11:32:41;29.60;99.90
11656;DHT22;5884;43.618;1.438;2023-08-12T11:35:10;29.80;99.90
11656;DHT22;5884;43.618;1.438;2023-08-12T11:37:39;29.80;99.90
11656;DHT22;5884;43.618;1.438;2023-08-12T11:40:08;29.80;99.90
11656;DHT22;5884;43.618;1.438;2023-08-12T11:42:38;29.80;99.90
11656;DHT22;5884;43.618;1.438;2023-08-12T11:45:08;29.90;99.90
11656;DHT22;5884;43.618;1.438;2023-08-12T11:47:37;29.90;99.90
11656;DHT22;5884;43.618;1.438;2023-08-12T11:50:07;30.00;99.90
11656;DHT22;5884;43.618;1.438;2023-08-12T11:52:35;30.00;99.90
11656;DHT22;5884;43.618;1.438;2023-08-12T11:55:04;30.10;99.90
11656;DHT22;5884;43.618;1.438;2023-08-12T11:57:32;30.00;99.90
11656;DHT22;5884;43.618;1.438;2023-08-12T12:00:00;30.00;99.90
11656;DHT22;5884;43.618;1.438;2023-08-12T12:02:30;30.30;99.90
11656;DHT22;5884;43.618;1.438;2023-08-12T12:04:57;30.20;99.90
11656;DHT22;5884;43.618;1.438;2023-08-12T12:07:25;30.20;99.90
11656;DHT22;5884;43.618;1.438;2023-08-12T12:09:53;30.30;99.90
11656;DHT22;5884;43.618;1.438;2023-08-12T12:12:22;30.40;99.90
11656;DHT22;5884;43.618;1.438;2023-08-12T12:14:51;30.50;99.90
11656;DHT22;5884;43.618;1.438;2023-08-12T12:17:21;30.60;99.90
11656;DHT22;5884;43.618;1.438;2023-08-12T12:19:55;30.40;99.90
11656;DHT22;5884;43.618;1.438;2023-08-12T12:22:26;30.30;99.90
11656;DHT22;5884;43.618;1.438;2023-08-12T12:24:58;30.50;99.90
11656;DHT22;5884;43.618;1.438;2023-08-12T12:27:26;30.50;99.90
11656;DHT22;5884;43.618;1.438;2023-08-12T12:29:53;30.40;99.90
11656;DHT22;5884;43.618;1.438;2023-08-12T12:32:21;30.50;99.90
11656;DHT22;5884;43.618;1.438;2023-08-12T12:34:48;30.60;99.90
11656;DHT22;5884;43.618;1.438;2023-08-12T12:37:18;30.70;99.90
11656;DHT22;5884;43.618;1.438;2023-08-12T12:39:46;30.70;99.90
11656;DHT22;5884;43.618;1.438;2023-08-12T12:42:13;30.70;99.90
11656;DHT22;5884;43.618;1.438;2023-08-12T12:44:40;30.40;99.90
11656;DHT22;5884;43.618;1.438;2023-08-12T12:47:07;30.60;99.90
11656;DHT22;5884;43.618;1.438;2023-08-12T12:49:36;30.90;99.90
11656;DHT22;5884;43.618;1.438;2023-08-12T12:52:04;30.90;99.90
11656;DHT22;5884;43.618;1.438;2023-08-12T12:54:33;30.80;99.90
11656;DHT22;5884;43.618;1.438;2023-08-12T12:57:00;30.90;99.90
11656;DHT22;5884;43.618;1.438;2023-08-12T12:59:29;31.00;99.90
11656;DHT22;5884;43.618;1.438;2023-08-12T13:01:56;31.10;99.90
11656;DHT22;5884;43.618;1.438;2023-08-12T13:04:23;31.20;99.90
11656;DHT22;5884;43.618;1.438;2023-08-12T13:06:51;31.00;99.90
11656;DHT22;5884;43.618;1.438;2023-08-12T13:09:18;30.80;99.90
11656;DHT22;5884;43.618;1.438;2023-08-12T13:11:47;30.90;99.90
11656;DHT22;5884;43.618;1.438;2023-08-12T13:14:14;31.00;99.90
11656;DHT22;5884;43.618;1.438;2023-08-12T13:16:42;31.00;99.90
11656;DHT22;5884;43.618;1.438;2023-08-12T13:19:09;31.00;99.90
11656;DHT22;5884;43.618;1.438;2023-08-12T13:21:36;31.00;99.90
11656;DHT22;5884;43.618;1.438;2023-08-12T13:24:04;31.20;99.90
11656;DHT22;5884;43.618;1.438;2023-08-12T13:26:32;31.30;99.90
11656;DHT22;5884;43.618;1.438;2023-08-12T13:29:00;31.40;99.90
11656;DHT22;5884;43.618;1.438;2023-08-12T13:31:28;31.40;99.90
11656;DHT22;5884;43.618;1.438;2023-08-12T13:33:55;31.50;99.90
11656;DHT22;5884;43.618;1.438;2023-08-12T13:36:23;31.50;99.90
11656;DHT22;5884;43.618;1.438;2023-08-12T13:38:50;31.60;99.90
11656;DHT22;5884;43.618;1.438;2023-08-12T13:41:17;31.60;99.90
11656;DHT22;5884;43.618;1.438;2023-08-12T13:43:45;31.50;99.90
11656;DHT22;5884;43.618;1.438;2023-08-12T13:46:13;31.40;99.90
11656;DHT22;5884;43.618;1.438;2023-08-12T13:48:40;31.60;99.90
11656;DHT22;5884;43.618;1.438;2023-08-12T13:51:09;31.70;99.90
11656;DHT22;5884;43.618;1.438;2023-08-12T13:53:36;31.90;99.90
11656;DHT22;5884;43.618;1.438;2023-08-12T13:56:03;31.90;99.90
11656;DHT22;5884;43.618;1.438;2023-08-12T13:58:31;32.00;99.90
11656;DHT22;5884;43.618;1.438;2023-08-12T14:00:58;32.00;99.90
11656;DHT22;5884;43.618;1.438;2023-08-12T14:03:27;31.90;99.90
11656;DHT22;5884;43.618;1.438;2023-08-12T14:05:54;31.80;99.90
11656;DHT22;5884;43.618;1.438;2023-08-12T14:08:21;31.60;99.90
11656;DHT22;5884;43.618;1.438;2023-08-12T14:10:48;31.80;99.90
11656;DHT22;5884;43.618;1.438;2023-08-12T14:13:16;32.00;99.90
11656;DHT22;5884;43.618;1.438;2023-08-12T14:15:43;32.20;99.90
11656;DHT22;5884;43.618;1.438;2023-08-12T14:18:10;32.20;99.90
11656;DHT22;5884;43.618;1.438;2023-08-12T14:20:39;32.10;99.90
11656;DHT22;5884;43.618;1.438;2023-08-12T14:23:06;32.10;99.90
11656;DHT22;5884;43.618;1.438;2023-08-12T14:25:34;32.10;99.90
11656;DHT22;5884;43.618;1.438;2023-08-12T14:28:01;32.10;99.90
11656;DHT22;5884;43.618;1.438;2023-08-12T14:30:28;32.10;99.90
11656;DHT22;5884;43.618;1.438;2023-08-12T14:32:56;32.10;99.90
11656;DHT22;5884;43.618;1.438;2023-08-12T14:35:23;31.90;99.90
11656;DHT22;5884;43.618;1.438;2023-08-12T14:37:52;32.00;99.90
11656;DHT22;5884;43.618;1.438;2023-08-12T14:40:19;32.10;99.90
11656;DHT22;5884;43.618;1.438;2023-08-12T14:42:46;32.20;99.90
11656;DHT22;5884;43.618;1.438;2023-08-12T14:45:13;32.20;99.90
11656;DHT22;5884;43.618;1.438;2023-08-12T14:47:40;32.30;99.90
11656;DHT22;5884;43.618;1.438;2023-08-12T14:50:08;32.30;99.90
11656;DHT22;5884;43.618;1.438;2023-08-12T14:52:36;32.30;99.90
11656;DHT22;5884;43.618;1.438;2023-08-12T14:55:05;32.40;99.90
11656;DHT22;5884;43.618;1.438;2023-08-12T14:57:34;32.50;99.90
11656;DHT22;5884;43.618;1.438;2023-08-12T15:00:02;32.50;99.90
11656;DHT22;5884;43.618;1.438;2023-08-12T15:02:33;32.70;99.90
11656;DHT22;5884;43.618;1.438;2023-08-12T15:05:00;32.70;99.90
11656;DHT22;5884;43.618;1.438;2023-08-12T15:07:27;32.80;99.90
11656;DHT22;5884;43.618;1.438;2023-08-12T15:09:55;32.70;99.90
11656;DHT22;5884;43.618;1.438;2023-08-12T15:12:25;32.60;99.90
11656;DHT22;5884;43.618;1.438;2023-08-12T15:14:53;32.60;99.90
11656;DHT22;5884;43.618;1.438;2023-08-12T15:17:20;32.60;99.90
11656;DHT22;5884;43.618;1.438;2023-08-12T15:19:48;32.80;99.90
11656;DHT22;5884;43.618;1.438;2023-08-12T15:22:15;33.00;99.90
11656;DHT22;5884;43.618;1.438;2023-08-12T15:24:42;32.90;99.90
11656;DHT22;5884;43.618;1.438;2023-08-12T15:27:10;32.80;99.90
11656;DHT22;5884;43.618;1.438;2023-08-12T15:29:39;32.70;99.90
11656;DHT22;5884;43.618;1.438;2023-08-12T15:32:06;32.50;99.90
11656;DHT22;5884;43.618;1.438;2023-08-12T15:34:33;32.60;99.90
11656;DHT22;5884;43.618;1.438;2023-08-12T15:37:01;32.70;99.90
11656;DHT22;5884;43.618;1.438;2023-08-12T15:39:29;32.90;99.90
11656;DHT22;5884;43.618;1.438;2023-08-12T15:41:56;32.90;99.90
11656;DHT22;5884;43.618;1.438;2023-08-12T15:44:23;32.80;99.90
11656;DHT22;5884;43.618;1.438;2023-08-12T15:46:52;32.60;99.90
11656;DHT22;5884;43.618;1.438;2023-08-12T15:49:19;32.50;99.90
11656;DHT22;5884;43.618;1.438;2023-08-12T15:51:46;32.40;99.90
11656;DHT22;5884;43.618;1.438;2023-08-12T15:54:14;32.50;99.90
11656;DHT22;5884;43.618;1.438;2023-08-12T15:56:41;32.60;99.90
11656;DHT22;5884;43.618;1.438;2023-08-12T15:59:08;32.60;99.90
11656;DHT22;5884;43.618;1.438;2023-08-12T16:01:35;32.60;99.90
11656;DHT22;5884;43.618;1.438;2023-08-12T16:04:05;32.60;99.90
11656;DHT22;5884;43.618;1.438;2023-08-12T16:06:32;32.60;99.90
11656;DHT22;5884;43.618;1.438;2023-08-12T16:08:59;32.40;99.90
11656;DHT22;5884;43.618;1.438;2023-08-12T16:11:27;32.40;99.90
11656;DHT22;5884;43.618;1.438;2023-08-12T16:13:55;32.50;99.90
11656;DHT22;5884;43.618;1.438;2023-08-12T16:16:22;32.40;99.90
11656;DHT22;5884;43.618;1.438;2023-08-12T16:18:49;32.50;99.90
11656;DHT22;5884;43.618;1.438;2023-08-12T16:21:18;32.50;99.90
11656;DHT22;5884;43.618;1.438;2023-08-12T16:23:45;32.50;99.90
11656;DHT22;5884;43.618;1.438;2023-08-12T16:26:12;32.50;99.90
11656;DHT22;5884;43.618;1.438;2023-08-12T16:28:39;32.60;99.90
11656;DHT22;5884;43.618;1.438;2023-08-12T16:31:06;32.60;99.90
11656;DHT22;5884;43.618;1.438;2023-08-12T16:33:34;32.60;99.90
11656;DHT22;5884;43.618;1.438;2023-08-12T16:36:01;32.50;99.90
11656;DHT22;5884;43.618;1.438;2023-08-12T16:38:29;32.30;99.90
11656;DHT22;5884;43.618;1.438;2023-08-12T16:40:57;32.10;99.90
11656;DHT22;5884;43.618;1.438;2023-08-12T16:43:24;32.00;99.90
11656;DHT22;5884;43.618;1.438;2023-08-12T16:45:51;31.80;99.90
11656;DHT22;5884;43.618;1.438;2023-08-12T16:48:18;31.70;99.90
11656;DHT22;5884;43.618;1.438;2023-08-12T16:50:45;31.60;99.90
11656;DHT22;5884;43.618;1.438;2023-08-12T16:53:13;31.50;99.90
11656;DHT22;5884;43.618;1.438;2023-08-12T16:55:42;31.50;99.90
11656;DHT22;5884;43.618;1.438;2023-08-12T16:58:09;31.40;99.90
11656;DHT22;5884;43.618;1.438;2023-08-12T17:00:36;31.40;99.90
11656;DHT22;5884;43.618;1.438;2023-08-12T17:03:04;31.60;99.90
11656;DHT22;5884;43.618;1.438;2023-08-12T17:05:31;31.60;99.90
11656;DHT22;5884;43.618;1.438;2023-08-12T17:07:58;31.70;99.90
11656;DHT22;5884;43.618;1.438;2023-08-12T17:10:26;31.70;99.90
11656;DHT22;5884;43.618;1.438;2023-08-12T17:12:55;31.60;99.90
11656;DHT22;5884;43.618;1.438;2023-08-12T17:15:23;31.60;99.90
11656;DHT22;5884;43.618;1.438;2023-08-12T17:17:50;31.50;99.90
11656;DHT22;5884;43.618;1.438;2023-08-12T17:20:17;31.40;99.90
11656;DHT22;5884;43.618;1.438;2023-08-12T17:22:45;31.30;99.90
11656;DHT22;5884;43.618;1.438;2023-08-12T17:25:12;31.40;99.90
11656;DHT22;5884;43.618;1.438;2023-08-12T17:27:39;31.40;99.90
11656;DHT22;5884;43.618;1.438;2023-08-12T17:30:08;31.40;99.90
11656;DHT22;5884;43.618;1.438;2023-08-12T17:32:36;31.40;99.90
11656;DHT22;5884;43.618;1.438;2023-08-12T17:35:03;31.40;99.90
11656;DHT22;5884;43.618;1.438;2023-08-12T17:37:34;31.40;99.90
11656;DHT22;5884;43.618;1.438;2023-08-12T17:40:02;31.30;99.90
11656;DHT22;5884;43.618;1.438;2023-08-12T17:42:30;31.30;99.90
11656;DHT22;5884;43.618;1.438;2023-08-12T17:44:57;31.20;99.90
11656;DHT22;5884;43.618;1.438;2023-08-12T17:47:26;31.10;99.90
11656;DHT22;5884;43.618;1.438;2023-08-12T17:49:53;31.00;99.90
11656;DHT22;5884;43.618;1.438;2023-08-12T17:52:20;31.00;99.90
11656;DHT22;5884;43.618;1.438;2023-08-12T17:54:48;30.90;99.90
11656;DHT22;5884;43.618;1.438;2023-08-12T17:57:15;30.90;99.90
11656;DHT22;5884;43.618;1.438;2023-08-12T17:59:42;30.90;99.90
11656;DHT22;5884;43.618;1.438;2023-08-12T18:02:09;30.90;99.90
11656;DHT22;5884;43.618;1.438;2023-08-12T18:04:38;30.90;99.90
11656;DHT22;5884;43.618;1.438;2023-08-12T18:07:05;30.80;99.90
11656;DHT22;5884;43.618;1.438;2023-08-12T18:09:32;30.80;99.90
11656;DHT22;5884;43.618;1.438;2023-08-12T18:11:59;30.80;99.90
11656;DHT22;5884;43.618;1.438;2023-08-12T18:14:27;30.70;99.90
11656;DHT22;5884;43.618;1.438;2023-08-12T18:16:54;30.70;99.90
11656;DHT22;5884;43.618;1.438;2023-08-12T18:19:21;30.60;99.90
11656;DHT22;5884;43.618;1.438;2023-08-12T18:21:49;30.60;99.90
11656;DHT22;5884;43.618;1.438;2023-08-12T18:24:17;30.50;99.90
11656;DHT22;5884;43.618;1.438;2023-08-12T18:26:44;30.50;99.90
11656;DHT22;5884;43.618;1.438;2023-08-12T18:29:11;30.40;99.90
11656;DHT22;5884;43.618;1.438;2023-08-12T18:31:38;30.40;99.90
11656;DHT22;5884;43.618;1.438;2023-08-12T18:34:06;30.40;99.90
11656;DHT22;5884;43.618;1.438;2023-08-12T18:36:33;30.30;99.90
11656;DHT22;5884;43.618;1.438;2023-08-12T18:39:02;30.30;99.90
11656;DHT22;5884;43.618;1.438;2023-08-12T18:41:29;30.20;99.90
11656;DHT22;5884;43.618;1.438;2023-08-12T18:43:57;30.20;99.90
11656;DHT22;5884;43.618;1.438;2023-08-12T18:46:24;30.10;99.90
11656;DHT22;5884;43.618;1.438;2023-08-12T18:48:51;30.10;99.90
11656;DHT22;5884;43.618;1.438;2023-08-12T18:51:18;30.00;99.90
11656;DHT22;5884;43.618;1.438;2023-08-12T18:53:46;29.90;99.90
11656;DHT22;5884;43.618;1.438;2023-08-12T18:56:15;29.90;99.90
11656;DHT22;5884;43.618;1.438;2023-08-12T18:58:42;29.80;99.90
11656;DHT22;5884;43.618;1.438;2023-08-12T19:01:09;29.70;99.90
11656;DHT22;5884;43.618;1.438;2023-08-12T19:03:36;29.70;99.90
11656;DHT22;5884;43.618;1.438;2023-08-12T19:06:04;29.70;99.90
11656;DHT22;5884;43.618;1.438;2023-08-12T19:08:31;29.60;99.90
11656;DHT22;5884;43.618;1.438;2023-08-12T19:10:58;29.60;99.90
11656;DHT22;5884;43.618;1.438;2023-08-12T19:13:27;29.50;99.90
11656;DHT22;5884;43.618;1.438;2023-08-12T19:15:55;29.50;99.90
11656;DHT22;5884;43.618;1.438;2023-08-12T19:18:23;29.40;99.90
11656;DHT22;5884;43.618;1.438;2023-08-12T19:20:51;29.30;99.90
11656;DHT22;5884;43.618;1.438;2023-08-12T19:23:18;29.30;99.90
11656;DHT22;5884;43.618;1.438;2023-08-12T19:25:46;29.20;99.90
11656;DHT22;5884;43.618;1.438;2023-08-12T19:28:13;29.10;99.90
11656;DHT22;5884;43.618;1.438;2023-08-12T19:30:42;29.10;99.90
11656;DHT22;5884;43.618;1.438;2023-08-12T19:33:09;29.10;99.90
11656;DHT22;5884;43.618;1.438;2023-08-12T19:35:36;29.00;99.90
11656;DHT22;5884;43.618;1.438;2023-08-12T19:38:10;29.00;99.90
11656;DHT22;5884;43.618;1.438;2023-08-12T19:40:38;28.90;99.90
11656;DHT22;5884;43.618;1.438;2023-08-12T19:43:06;28.90;99.90
11656;DHT22;5884;43.618;1.438;2023-08-12T19:45:33;28.80;99.90
11656;DHT22;5884;43.618;1.438;2023-08-12T19:48:03;28.70;99.90
11656;DHT22;5884;43.618;1.438;2023-08-12T19:50:30;28.70;99.90
11656;DHT22;5884;43.618;1.438;2023-08-12T19:53:01;28.70;99.90
11656;DHT22;5884;43.618;1.438;2023-08-12T19:55:28;28.60;99.90
11656;DHT22;5884;43.618;1.438;2023-08-12T19:57:56;28.60;99.90
11656;DHT22;5884;43.618;1.438;2023-08-12T20:00:23;28.50;99.90
11656;DHT22;5884;43.618;1.438;2023-08-12T20:02:50;28.50;99.90
11656;DHT22;5884;43.618;1.438;2023-08-12T20:05:19;28.40;99.90
11656;DHT22;5884;43.618;1.438;2023-08-12T20:07:48;28.40;99.90
11656;DHT22;5884;43.618;1.438;2023-08-12T20:10:20;28.30;99.90
11656;DHT22;5884;43.618;1.438;2023-08-12T20:12:47;28.30;99.90
11656;DHT22;5884;43.618;1.438;2023-08-12T20:15:15;28.30;99.90
11656;DHT22;5884;43.618;1.438;2023-08-12T20:17:43;28.20;99.90
11656;DHT22;5884;43.618;1.438;2023-08-12T20:20:12;28.20;99.90
11656;DHT22;5884;43.618;1.438;2023-08-12T20:22:44;28.20;99.90
11656;DHT22;5884;43.618;1.438;2023-08-12T20:25:12;28.10;99.90
11656;DHT22;5884;43.618;1.438;2023-08-12T20:27:40;28.10;99.90
11656;DHT22;5884;43.618;1.438;2023-08-12T20:30:07;28.00;99.90
11656;DHT22;5884;43.618;1.438;2023-08-12T20:32:36;28.00;99.90
11656;DHT22;5884;43.618;1.438;2023-08-12T20:35:04;28.00;99.90